Latest Weather Observations for Omeo

IDV60801

Issued at 8:02 am EST Monday 3 August 2015 (issued every 30 minutes, with the page automatically refreshed every 10 minutes)

About weather observations | Map of weather stations | Latest weather observations for VIC | Other Formats
Station Details ID: 083090 Name: OMEO Lat: -37.10 Lon: 147.60 Height: 689.8 m
Data from the previous 72 hours. | See also: Recent months at Omeo
Date/Time
EST
Temp
°C
App
Temp
°C
Dew
Point
Rel
Hum
%
Delta-T
°C
Wind Press
QNH
hPa
Press
MSL
hPa
Rain
since 9 am
mm
Dir
 
Spd
km/h
Gust
km/h
Spd
kts
Gust
kts
03/08:00am 4.1 -0.9 1.5 83 1.1 NNW 17 28 9 15 1011.4 1012.1 0.4
03/07:30am 4.6 -0.1 0.9 77 1.5 N 15 24 8 13 1010.9 1011.6 0.4
03/07:00am 5.4 -0.3 -0.4 66 2.3 NNW 19 28 10 15 1010.6 1011.3 0.4
03/06:30am 5.3 0.0 -0.3 67 2.2 NNW 17 33 9 18 1010.1 1010.8 0.4
03/06:00am 6.2 1.2 -1.0 60 2.8 NW 15 24 8 13 1010.2 1010.9 0.4
03/05:30am 5.6 0.2 1.2 73 1.8 NNW 19 28 10 15 1009.8 1010.5 0.4
03/05:00am 5.8 0.4 1.2 72 1.9 NNW 19 30 10 16 1009.8 1010.5 0.4
03/04:30am 5.6 -1.1 1.5 75 1.7 NNW 26 39 14 21 1009.2 1009.8 0.4
03/04:00am 6.1 -0.4 0.6 68 2.3 NNW 24 43 13 23 1008.8 1009.4 0.4
03/03:30am 5.6 -1.1 1.2 73 1.8 N 26 39 14 21 1008.8 1009.4 0.4
03/03:00am 5.9 -0.9 0.9 70 2.1 NNW 26 46 14 25 1009.2 1009.8 0.4
03/02:51am 6.1 -1.0 1.1 70 2.1 NNW 28 46 15 25 1009.2 1009.8 0.4
03/02:30am 5.7 -0.7 1.1 72 1.9 NNW 24 44 13 24 1009.4 1010.1 0.4
03/02:00am 5.8 -1.7 1.0 71 2.0 N 30 50 16 27 1009.6 1010.3 0.4
03/01:41am 6.9 -1.1 0.6 64 2.6 N 32 57 17 31 1009.4 1010.1 0.4
03/01:30am 6.4 -1.1 1.1 69 2.2 NNW 30 43 16 23 1009.2 1009.8 0.4
03/01:00am 7.1 -0.9 0.5 63 2.7 NNW 32 50 17 27 1009.6 1010.3 0.4
03/12:30am 7.3 -0.8 0.7 63 2.7 NNW 33 54 18 29 1009.4 1010.1 0.4
03/12:00am 7.1 -1.3 1.4 67 2.4 NNW 35 56 19 30 1009.1 1009.7 0.4
 
Date/Time
EST
Temp
°C
App
Temp
°C
Dew
Point
Rel
Hum
%
Delta-T
°C
Wind Press
QNH
hPa
Press
MSL
hPa
Rain
since 9 am
mm
Dir
 
Spd
km/h
Gust
km/h
Spd
kts
Gust
kts
02/11:30pm 5.7 -1.7 2.0 77 1.6 NNW 30 48 16 26 1009.8 1010.5 0.4
02/11:28pm 5.9 -1.4 2.4 78 1.5 NNW 30 48 16 26 1009.7 1010.4 0.4
02/11:00pm 4.7 -1.5 2.2 84 1.1 N 24 37 13 20 1010.4 1011.0 0.4
02/10:30pm 4.4 -1.8 2.4 87 0.8 NNW 24 44 13 24 1010.8 1011.5 0.4
02/10:00pm 4.5 -2.1 2.2 85 1.0 NNW 26 35 14 19 1011.3 1012.0 0.4
02/09:30pm 4.6 -1.7 1.8 82 1.2 NNW 24 35 13 19 1011.7 1012.4 0.4
02/09:00pm 4.7 -1.6 1.6 80 1.3 N 24 35 13 19 1012.0 1012.7 0.4
02/08:30pm 5.0 -1.0 0.9 75 1.7 NNW 22 32 12 17 1012.0 1012.7 0.4
02/08:00pm 5.1 -0.9 0.9 74 1.7 N 22 32 12 17 1012.1 1012.8 0.4
02/07:30pm 5.3 -0.3 0.1 69 2.1 N 19 30 10 16 1012.1 1012.8 0.4
02/07:00pm 5.6 0.0 -0.2 66 2.3 N 19 28 10 15 1012.3 1013.0 0.4
02/06:30pm 5.5 0.6 -0.3 66 2.3 N 15 24 8 13 1012.6 1013.3 0.4
02/06:00pm 5.2 -0.6 0.2 70 2.0 N 20 32 11 17 1011.6 1012.3 0.4
02/05:30pm 5.3 -1.2 0.3 70 2.0 N 24 41 13 22 1010.9 1011.6 0.4
02/05:00pm 6.2 -0.6 0.5 67 2.3 N 26 39 14 21 1010.1 1010.8 0.4
02/04:30pm 7.4 0.3 1.3 65 2.6 N 28 37 15 20 1009.8 1010.5 0.4
02/04:00pm 8.5 1.4 1.4 61 3.0 N 28 43 15 23 1009.5 1010.2 0.2
02/03:30pm 10.0 3.6 -1.4 45 4.6 N 22 32 12 17 1009.4 1010.1 0.2
02/03:00pm 10.7 3.8 -3.0 38 5.4 NW 24 35 13 19 1009.4 1010.1 0.2
02/02:30pm 11.5 6.2 -0.6 43 5.1 NW 17 22 9 12 1008.9 1009.5 0.2
02/02:00pm 11.2 5.4 -1.2 42 5.1 NNW 19 30 10 16 1008.4 1009.1 0.2
02/01:30pm 11.2 5.9 -0.9 43 5.0 NNW 17 30 9 16 1008.4 1009.1 0.2
02/01:00pm 11.5 7.2 3.3 57 3.8 NNW 15 20 8 11 1008.6 1009.3 0.2
02/12:30pm 9.5 6.8 5.5 76 1.9 NNE 9 15 5 8 1009.1 1009.7 0.2
02/12:00pm 8.0 4.5 5.5 84 1.2 N 13 19 7 10 1009.7 1010.4 0.2
02/11:30am 8.2 4.7 5.3 82 1.4 N 13 22 7 12 1009.6 1010.3 0.2
02/11:00am 7.7 6.4 6.2 90 0.7 E 2 9 1 5 1010.4 1011.0 0.2
02/10:30am 7.4 6.2 6.3 93 0.5 NNW 2 7 1 4 1010.7 1011.4 0.2
02/10:00am 6.4 4.2 5.5 94 0.4 NW 6 7 3 4 1010.6 1011.3 0.2
02/09:30am 6.0 4.9 5.3 95 0.3 CALM 0 0 0 0 1010.7 1011.4 0.2
02/09:00am 5.6 4.5 4.9 95 0.3 CALM 0 6 0 3 1011.2 1011.9 2.6
02/08:30am 5.4 3.1 4.7 95 0.3 SSW 6 9 3 5 1011.2 1011.9 2.4
02/08:00am 5.1 3.1 4.4 95 0.3 WSW 4 7 2 4 1011.2 1011.9 2.4
02/07:30am 5.2 2.8 4.3 94 0.4 W 6 9 3 5 1011.2 1011.9 2.2
02/07:00am 5.5 2.6 4.6 94 0.4 NNW 9 11 5 6 1011.0 1011.7 1.8
02/06:30am 5.5 2.6 4.5 93 0.4 NNW 9 17 5 9 1011.0 1011.7 1.6
02/06:00am 5.5 3.0 4.5 93 0.4 NNW 7 11 4 6 1011.1 1011.8 1.6
02/05:30am 5.3 2.7 4.3 93 0.4 NNW 7 11 4 6 1011.1 1011.8 1.6
02/05:00am 5.4 2.8 4.4 93 0.4 NNW 7 13 4 7 1011.4 1012.1 1.6
02/04:30am 5.4 2.8 4.4 93 0.4 NNW 7 13 4 7 1011.9 1012.6 1.6
02/04:00am 5.3 1.6 4.4 94 0.4 NNW 13 19 7 10 1012.2 1012.9 1.6
02/03:30am 5.1 1.7 4.2 94 0.4 N 11 17 6 9 1012.5 1013.2 1.6
02/03:00am 5.4 1.3 4.4 93 0.4 N 15 20 8 11 1013.2 1014.0 1.6
02/02:30am 5.5 1.8 4.3 92 0.5 N 13 19 7 10 1013.6 1014.3 1.6
02/02:00am 5.5 1.8 4.3 92 0.5 N 13 19 7 10 1014.0 1014.7 1.6
02/01:30am 5.3 0.8 4.3 93 0.4 N 17 22 9 12 1014.3 1015.1 1.6
02/01:00am 5.4 1.3 4.2 92 0.5 N 15 20 8 11 1014.5 1015.3 1.6
02/12:30am 5.6 1.1 4.2 91 0.6 N 17 26 9 14 1015.0 1015.7 1.6
02/12:00am 5.5 1.4 4.2 91 0.6 N 15 20 8 11 1014.7 1015.5 1.6
 
Date/Time
EST
Temp
°C
App
Temp
°C
Dew
Point
Rel
Hum
%
Delta-T
°C
Wind Press
QNH
hPa
Press
MSL
hPa
Rain
since 9 am
mm
Dir
 
Spd
km/h
Gust
km/h
Spd
kts
Gust
kts
01/11:30pm 5.8 0.9 4.1 89 0.8 N 19 24 10 13 1015.0 1015.7 1.6
01/11:00pm 6.0 1.9 4.2 88 0.8 N 15 24 8 13 1015.1 1015.8 1.6
01/10:30pm 5.8 1.7 4.3 90 0.7 NNE 15 26 8 14 1014.6 1015.4 1.6
01/10:00pm 6.3 1.4 4.0 85 1.0 N 19 28 10 15 1015.1 1015.8 1.6
01/09:30pm 6.4 1.5 4.1 85 1.0 N 19 24 10 13 1015.0 1015.7 1.6
01/09:00pm 6.5 2.1 4.5 87 0.9 N 17 26 9 14 1015.6 1016.4 1.6
01/08:30pm 6.6 2.2 4.6 87 0.9 N 17 26 9 14 1015.0 1015.7 1.6
01/08:00pm 6.9 2.4 4.4 84 1.1 N 17 22 9 12 1014.7 1015.5 1.6
01/07:30pm 7.1 2.0 4.1 81 1.3 N 20 30 11 16 1015.2 1015.9 1.6
01/07:00pm 7.5 4.5 4.3 80 1.5 N 9 15 5 8 1014.4 1015.2 1.6
01/06:30pm 7.5 4.6 4.6 82 1.3 N 9 13 5 7 1014.5 1015.3 1.6
01/06:00pm 7.8 4.5 4.7 81 1.4 N 11 19 6 10 1013.7 1014.4 1.6
01/05:30pm 8.3 3.7 3.9 74 2.0 N 17 24 9 13 1013.6 1014.3 1.6
01/05:00pm 8.5 4.4 4.1 74 2.0 NNW 15 28 8 15 1013.5 1014.2 1.6
01/04:30pm 8.1 4.0 6.2 88 0.9 NW 17 28 9 15 1013.0 1013.8 1.6
01/04:00pm 7.8 2.6 7.1 95 0.3 NNW 24 35 13 19 1012.6 1013.3 1.4
01/03:30pm 8.1 5.0 7.2 94 0.4 NNW 13 19 7 10 1013.3 1014.1 1.2
01/03:00pm 8.4 5.3 7.2 92 0.6 N 13 19 7 10 1013.0 1013.8 0.6
01/02:30pm 8.6 4.3 7.1 90 0.7 N 19 26 10 14 1012.3 1013.0 0.0
01/02:00pm 9.2 5.7 7.3 88 0.9 N 15 24 8 13 1011.7 1012.4 0.0
01/01:30pm 9.3 4.8 7.1 86 1.1 N 20 28 11 15 1011.6 1012.3 0.0
01/01:00pm 10.3 6.0 6.8 79 1.7 N 19 28 10 15 1011.6 1012.3 0.0
01/12:30pm 10.9 6.5 6.6 75 2.1 N 19 32 10 17 1011.7 1012.4 0.0
01/12:00pm 12.0 7.4 6.3 68 2.8 NNW 20 33 11 18 1011.6 1012.3 0.0
01/11:30am 12.5 7.0 6.1 65 3.1 NNW 24 39 13 21 1011.3 1012.0 0.0
01/11:00am 11.9 5.8 6.4 69 2.7 NNW 28 44 15 24 1011.5 1012.2 0.0
01/10:30am 11.2 4.7 6.5 73 2.3 NNW 30 39 16 21 1011.1 1011.8 0.0
01/10:06am 11.3 4.4 6.6 73 2.3 N 32 50 17 27 1010.1 1010.8 0.0
01/10:00am 10.9 3.8 6.5 74 2.2 N 33 50 18 27 1009.9 1010.6 0.0
01/09:30am 10.6 3.6 5.8 72 2.3 N 32 50 17 27 1009.9 1010.9 0.0
01/09:24am 10.7 3.6 5.7 71 2.4 N 32 50 17 27 1010.0 1011.0 0.0
01/09:00am 10.3 3.9 5.3 71 2.4 NNW 28 39 15 21 1010.2 1011.3 0.2
01/08:30am 10.1 3.6 4.5 68 2.6 NNW 28 52 15 28 1010.1 1011.1 0.2
01/08:02am 10.6 3.9 3.9 63 3.1 N 28 63 15 34 1010.5 1011.5 0.2
01/08:00am 9.9 3.6 3.9 66 2.8 N 26 39 14 21 1010.7 1011.7 0.2
01/07:30am 9.8 4.3 4.2 68 2.6 N 22 39 12 21 1010.6 1011.6 0.2
01/07:00am 8.6 1.8 5.0 78 1.7 N 30 44 16 24 1010.6 1011.6 0.2
01/06:47am 8.2 1.4 5.0 80 1.5 N 30 48 16 26 1010.6 1011.6 0.2
01/06:30am 8.1 2.4 5.0 81 1.4 NNW 24 41 13 22 1010.9 1011.9 0.2
01/06:00am 7.8 1.3 4.6 80 1.5 N 28 44 15 24 1010.9 1011.9 0.2
01/05:30am 7.6 0.1 4.2 79 1.5 N 33 52 18 28 1011.2 1012.2 0.2
01/05:11am 7.4 -0.2 3.8 78 1.6 N 33 52 18 28 1011.3 1012.3 0.2
01/05:00am 7.4 -0.2 3.8 78 1.6 N 33 50 18 27 1011.2 1012.2 0.2
01/04:35am 7.4 -1.0 3.6 77 1.7 N 37 56 20 30 1011.3 1012.3 0.2
01/04:30am 7.4 -1.0 3.6 77 1.7 N 37 54 20 29 1011.4 1012.5 0.2
01/04:07am 7.4 0.3 3.6 77 1.7 N 30 48 16 26 1011.3 1012.3 0.2
01/04:00am 7.2 0.1 3.6 78 1.6 N 30 43 16 23 1011.5 1012.6 0.2
01/03:30am 6.9 -1.2 3.3 78 1.6 NNW 35 54 19 29 1011.6 1012.7 0.2
01/03:03am 6.8 -0.8 2.7 75 1.8 NNW 32 52 17 28 1012.6 1013.6 0.2
01/03:00am 6.7 -0.6 2.4 74 1.9 NNW 30 43 16 23 1012.8 1013.9 0.2
01/02:30am 6.1 -0.2 1.6 73 1.9 N 24 37 13 20 1013.5 1014.5 0.2
01/02:00am 6.2 -0.1 1.3 71 2.0 N 24 37 13 20 1014.5 1015.6 0.2
01/01:30am 6.3 -0.8 1.2 70 2.1 N 28 44 15 24 1015.0 1016.0 0.2
01/01:11am 5.9 -1.2 1.1 71 2.0 N 28 46 15 25 1015.2 1016.3 0.2
01/01:00am 5.8 -1.0 1.0 71 2.0 NNW 26 39 14 21 1015.5 1016.6 0.2
01/12:48am 6.1 -1.1 0.9 69 2.1 N 28 46 15 25 1015.5 1016.6 0.2
01/12:30am 6.2 -0.6 0.9 69 2.2 N 26 39 14 21 1015.6 1016.7 0.2
01/12:00am 6.0 0.4 1.2 71 2.0 NNW 20 37 11 20 1016.2 1017.3 0.2
 
Date/Time
EST
Temp
°C
App
Temp
°C
Dew
Point
Rel
Hum
%
Delta-T
°C
Wind Press
QNH
hPa
Press
MSL
hPa
Rain
since 9 am
mm
Dir
 
Spd
km/h
Gust
km/h
Spd
kts
Gust
kts
31/11:30pm 5.7 -1.0 1.2 73 1.9 N 26 37 14 20 1016.0 1017.1 0.2
31/11:00pm 5.9 -1.5 1.6 74 1.8 N 30 44 16 24 1016.2 1017.3 0.2
31/10:30pm 5.8 -0.5 1.7 75 1.7 N 24 35 13 19 1016.6 1017.7 0.2
31/10:00pm 6.5 1.1 2.2 74 1.8 NNW 20 35 11 19 1016.9 1018.0 0.2
31/09:30pm 6.4 1.0 2.3 75 1.8 NNW 20 30 11 16 1016.9 1018.0 0.2
31/09:00pm 6.1 1.2 2.2 76 1.7 N 17 28 9 15 1017.4 1018.5 0.2
31/08:30pm 5.8 0.6 2.3 78 1.5 N 19 26 10 14 1017.6 1018.8 0.2
31/08:00pm 6.1 1.3 2.4 77 1.6 N 17 28 9 15 1017.6 1018.8 0.2
31/07:30pm 6.0 1.1 2.3 77 1.6 NNW 17 22 9 12 1017.8 1019.0 0.2
31/07:00pm 6.1 1.2 1.8 74 1.8 NNW 17 24 9 13 1017.4 1018.5 0.2
31/06:30pm 6.4 1.1 2.1 74 1.8 N 19 28 10 15 1017.1 1018.2 0.2
31/06:00pm 6.9 2.0 2.0 71 2.1 NNW 17 24 9 13 1017.0 1018.1 0.2
31/05:30pm 7.3 1.8 1.8 68 2.3 NNW 20 30 11 16 1016.9 1018.0 0.2
31/05:00pm 7.7 2.4 2.0 67 2.4 NNW 19 26 10 14 1016.9 1018.0 0.2
31/04:30pm 9.5 2.6 2.4 61 3.1 N 28 39 15 21 1016.8 1017.9 0.2
31/04:00pm 10.2 3.7 2.8 60 3.3 N 26 37 14 20 1017.0 1018.1 0.2
31/03:30pm 10.8 4.3 2.6 57 3.7 N 26 35 14 19 1016.8 1017.9 0.2
31/03:00pm 11.0 4.5 2.6 56 3.8 N 26 35 14 19 1016.7 1017.8 0.2
31/02:30pm 11.2 5.1 3.0 57 3.7 N 24 33 13 18 1017.0 1018.1 0.2
31/02:00pm 11.3 5.7 3.3 58 3.7 N 22 33 12 18 1017.2 1018.3 0.2
31/01:30pm 11.6 6.7 4.3 61 3.4 N 19 28 10 15 1017.5 1018.6 0.2
31/01:00pm 11.0 6.4 3.5 60 3.4 N 17 26 9 14 1017.7 1018.9 0.2
31/12:30pm 10.6 6.2 2.7 58 3.5 N 15 22 8 12 1018.3 1019.4 0.2
31/12:00pm 9.9 5.0 2.3 59 3.4 N 17 26 9 14 1018.9 1020.1 0.0
31/11:30am 9.0 4.1 1.9 61 3.1 N 17 26 9 14 1019.4 1020.6 0.0
31/11:00am 8.7 4.1 3.5 70 2.3 N 17 24 9 13 1020.0 1021.1 0.0
31/10:30am 8.1 3.5 3.8 74 1.9 N 17 24 9 13 1019.9 1021.0 0.0
31/10:00am 7.8 4.5 4.6 80 1.5 NNW 11 17 6 9 1019.9 1021.0 0.0
31/09:30am 6.7 3.8 4.5 86 1.0 NNW 9 15 5 8 1019.9 1021.0 0.0
31/09:00am 4.1 2.2 3.1 93 0.4 WSW 2 7 1 4 1019.7 1020.8 0.0
31/08:30am 3.4 0.7 2.4 93 0.4 WSW 6 7 3 4 1019.2 1020.4 0.0

Other Formats:

Comma delimited format used in spreadsheet applications
http://www.bom.gov.au/fwo/IDV60801/IDV60801.94908.axf

JavaScript Object Notation format (JSON) in row-major order
http://www.bom.gov.au/fwo/IDV60801/IDV60801.94908.json